sensor_id;sensor_type;location;lat;lon;timestamp;temperature;humidity
5578;DHT22;2811;51.900;10.734;2022-08-19T00:01:55;21.30;99.90
5578;DHT22;2811;51.900;10.734;2022-08-19T00:04:24;21.30;99.90
5578;DHT22;2811;51.900;10.734;2022-08-19T00:06:51;21.30;99.90
5578;DHT22;2811;51.900;10.734;2022-08-19T00:09:19;21.20;99.90
5578;DHT22;2811;51.900;10.734;2022-08-19T00:11:46;21.40;99.90
5578;DHT22;2811;51.900;10.734;2022-08-19T00:14:16;21.30;99.90
5578;DHT22;2811;51.900;10.734;2022-08-19T00:16:44;21.40;99.90
5578;DHT22;2811;51.900;10.734;2022-08-19T00:19:13;21.30;99.90
5578;DHT22;2811;51.900;10.734;2022-08-19T00:21:39;21.40;99.90
5578;DHT22;2811;51.900;10.734;2022-08-19T00:24:07;21.30;99.90
5578;DHT22;2811;51.900;10.734;2022-08-19T00:26:35;21.20;99.90
5578;DHT22;2811;51.900;10.734;2022-08-19T00:29:02;21.10;99.90
5578;DHT22;2811;51.900;10.734;2022-08-19T00:31:29;21.10;99.90
5578;DHT22;2811;51.900;10.734;2022-08-19T00:33:56;21.00;99.90
5578;DHT22;2811;51.900;10.734;2022-08-19T00:36:24;21.00;99.90
5578;DHT22;2811;51.900;10.734;2022-08-19T00:38:51;21.10;99.90
5578;DHT22;2811;51.900;10.734;2022-08-19T00:41:19;20.90;99.90
5578;DHT22;2811;51.900;10.734;2022-08-19T00:43:57;20.90;99.90
5578;DHT22;2811;51.900;10.734;2022-08-19T00:46:24;20.90;99.90
5578;DHT22;2811;51.900;10.734;2022-08-19T00:48:51;20.90;99.90
5578;DHT22;2811;51.900;10.734;2022-08-19T00:51:18;20.80;99.90
5578;DHT22;2811;51.900;10.734;2022-08-19T00:53:46;20.80;99.90
5578;DHT22;2811;51.900;10.734;2022-08-19T00:56:12;20.90;99.90
5578;DHT22;2811;51.900;10.734;2022-08-19T00:58:40;20.80;99.90
5578;DHT22;2811;51.900;10.734;2022-08-19T01:01:07;20.70;99.90
5578;DHT22;2811;51.900;10.734;2022-08-19T01:03:34;20.70;99.90
5578;DHT22;2811;51.900;10.734;2022-08-19T01:06:00;20.80;99.90
5578;DHT22;2811;51.900;10.734;2022-08-19T01:08:28;20.80;99.90
5578;DHT22;2811;51.900;10.734;2022-08-19T01:10:57;20.80;99.90
5578;DHT22;2811;51.900;10.734;2022-08-19T01:13:27;20.70;99.90
5578;DHT22;2811;51.900;10.734;2022-08-19T01:15:57;20.70;99.90
5578;DHT22;2811;51.900;10.734;2022-08-19T01:18:25;20.60;99.90
5578;DHT22;2811;51.900;10.734;2022-08-19T01:20:54;20.60;99.90
5578;DHT22;2811;51.900;10.734;2022-08-19T01:23:24;20.60;99.90
5578;DHT22;2811;51.900;10.734;2022-08-19T01:26:09;20.70;99.90
5578;DHT22;2811;51.900;10.734;2022-08-19T01:28:36;20.70;99.90
5578;DHT22;2811;51.900;10.734;2022-08-19T01:31:04;20.70;99.90
5578;DHT22;2811;51.900;10.734;2022-08-19T01:33:31;20.70;99.90
5578;DHT22;2811;51.900;10.734;2022-08-19T01:36:07;20.60;99.90
5578;DHT22;2811;51.900;10.734;2022-08-19T01:38:38;20.60;99.90
5578;DHT22;2811;51.900;10.734;2022-08-19T01:41:05;20.70;99.90
5578;DHT22;2811;51.900;10.734;2022-08-19T01:43:32;20.60;99.90
5578;DHT22;2811;51.900;10.734;2022-08-19T01:45:59;20.50;99.90
5578;DHT22;2811;51.900;10.734;2022-08-19T01:48:26;20.50;99.90
5578;DHT22;2811;51.900;10.734;2022-08-19T01:50:54;20.50;99.90
5578;DHT22;2811;51.900;10.734;2022-08-19T01:53:21;20.40;99.90
5578;DHT22;2811;51.900;10.734;2022-08-19T01:55:49;20.40;99.90
5578;DHT22;2811;51.900;10.734;2022-08-19T01:58:19;20.30;99.90
5578;DHT22;2811;51.900;10.734;2022-08-19T02:00:47;20.30;99.90
5578;DHT22;2811;51.900;10.734;2022-08-19T02:03:14;20.40;99.90
5578;DHT22;2811;51.900;10.734;2022-08-19T02:05:42;20.40;99.90
5578;DHT22;2811;51.900;10.734;2022-08-19T02:08:10;20.40;99.90
5578;DHT22;2811;51.900;10.734;2022-08-19T02:10:39;20.30;99.90
5578;DHT22;2811;51.900;10.734;2022-08-19T02:13:08;20.30;99.90
5578;DHT22;2811;51.900;10.734;2022-08-19T02:15:34;20.30;99.90
5578;DHT22;2811;51.900;10.734;2022-08-19T02:18:01;20.50;99.90
5578;DHT22;2811;51.900;10.734;2022-08-19T02:20:28;20.10;99.90
5578;DHT22;2811;51.900;10.734;2022-08-19T02:22:55;20.10;99.90
5578;DHT22;2811;51.900;10.734;2022-08-19T02:25:21;20.10;99.90
5578;DHT22;2811;51.900;10.734;2022-08-19T02:27:48;20.10;99.90
5578;DHT22;2811;51.900;10.734;2022-08-19T02:30:17;20.00;99.90
5578;DHT22;2811;51.900;10.734;2022-08-19T02:32:44;20.00;99.90
5578;DHT22;2811;51.900;10.734;2022-08-19T02:35:12;20.00;99.90
5578;DHT22;2811;51.900;10.734;2022-08-19T02:37:40;20.00;99.90
5578;DHT22;2811;51.900;10.734;2022-08-19T02:40:20;20.00;99.90
5578;DHT22;2811;51.900;10.734;2022-08-19T02:42:47;20.00;99.90
5578;DHT22;2811;51.900;10.734;2022-08-19T02:45:15;20.00;99.90
5578;DHT22;2811;51.900;10.734;2022-08-19T02:47:42;20.00;99.90
5578;DHT22;2811;51.900;10.734;2022-08-19T02:50:09;20.00;99.90
5578;DHT22;2811;51.900;10.734;2022-08-19T02:52:36;20.00;99.90
5578;DHT22;2811;51.900;10.734;2022-08-19T02:55:03;20.00;99.90
5578;DHT22;2811;51.900;10.734;2022-08-19T02:57:31;19.90;99.90
5578;DHT22;2811;51.900;10.734;2022-08-19T02:59:58;19.90;99.90
5578;DHT22;2811;51.900;10.734;2022-08-19T03:02:26;19.90;99.90
5578;DHT22;2811;51.900;10.734;2022-08-19T03:04:53;20.20;99.90
5578;DHT22;2811;51.900;10.734;2022-08-19T03:07:20;19.90;99.90
5578;DHT22;2811;51.900;10.734;2022-08-19T03:09:46;19.90;99.90
5578;DHT22;2811;51.900;10.734;2022-08-19T03:12:13;19.90;99.90
5578;DHT22;2811;51.900;10.734;2022-08-19T03:14:39;20.00;99.90
5578;DHT22;2811;51.900;10.734;2022-08-19T03:17:06;19.90;99.90
5578;DHT22;2811;51.900;10.734;2022-08-19T03:19:34;19.80;99.90
5578;DHT22;2811;51.900;10.734;2022-08-19T03:22:01;19.90;99.90
5578;DHT22;2811;51.900;10.734;2022-08-19T03:24:30;19.90;99.90
5578;DHT22;2811;51.900;10.734;2022-08-19T03:26:58;19.80;99.90
5578;DHT22;2811;51.900;10.734;2022-08-19T03:29:26;19.80;99.90
5578;DHT22;2811;51.900;10.734;2022-08-19T03:31:53;19.80;99.90
5578;DHT22;2811;51.900;10.734;2022-08-19T03:34:22;19.80;99.90
5578;DHT22;2811;51.900;10.734;2022-08-19T03:36:53;19.80;99.90
5578;DHT22;2811;51.900;10.734;2022-08-19T03:39:21;19.80;99.90
5578;DHT22;2811;51.900;10.734;2022-08-19T03:41:51;19.80;99.90
5578;DHT22;2811;51.900;10.734;2022-08-19T03:44:20;19.80;99.90
5578;DHT22;2811;51.900;10.734;2022-08-19T03:46:49;19.80;99.90
5578;DHT22;2811;51.900;10.734;2022-08-19T03:49:17;19.80;99.90
5578;DHT22;2811;51.900;10.734;2022-08-19T03:51:45;19.70;99.90
5578;DHT22;2811;51.900;10.734;2022-08-19T03:54:15;19.70;99.90
5578;DHT22;2811;51.900;10.734;2022-08-19T03:56:44;19.70;99.90
5578;DHT22;2811;51.900;10.734;2022-08-19T03:59:15;19.60;99.90
5578;DHT22;2811;51.900;10.734;2022-08-19T04:01:42;19.60;99.90
5578;DHT22;2811;51.900;10.734;2022-08-19T04:04:09;19.60;99.90
5578;DHT22;2811;51.900;10.734;2022-08-19T04:06:37;19.60;99.90
5578;DHT22;2811;51.900;10.734;2022-08-19T04:09:07;19.60;99.90
5578;DHT22;2811;51.900;10.734;2022-08-19T04:11:39;19.70;99.90
5578;DHT22;2811;51.900;10.734;2022-08-19T04:14:06;19.70;99.90
5578;DHT22;2811;51.900;10.734;2022-08-19T04:16:33;19.60;99.90
5578;DHT22;2811;51.900;10.734;2022-08-19T04:19:01;19.60;99.90
5578;DHT22;2811;51.900;10.734;2022-08-19T04:21:28;19.70;99.90
5578;DHT22;2811;51.900;10.734;2022-08-19T04:23:56;19.60;99.90
5578;DHT22;2811;51.900;10.734;2022-08-19T04:26:25;19.60;99.90
5578;DHT22;2811;51.900;10.734;2022-08-19T04:28:53;19.60;99.90
5578;DHT22;2811;51.900;10.734;2022-08-19T04:31:23;19.60;99.90
5578;DHT22;2811;51.900;10.734;2022-08-19T04:33:51;19.50;99.90
5578;DHT22;2811;51.900;10.734;2022-08-19T04:36:22;19.40;99.90
5578;DHT22;2811;51.900;10.734;2022-08-19T04:38:53;19.40;99.90
5578;DHT22;2811;51.900;10.734;2022-08-19T04:41:19;19.80;99.90
5578;DHT22;2811;51.900;10.734;2022-08-19T04:44:05;19.40;99.90
5578;DHT22;2811;51.900;10.734;2022-08-19T04:46:33;19.30;99.90
5578;DHT22;2811;51.900;10.734;2022-08-19T04:49:02;19.30;99.90
5578;DHT22;2811;51.900;10.734;2022-08-19T04:51:30;19.30;99.90
5578;DHT22;2811;51.900;10.734;2022-08-19T04:53:57;19.20;99.90
5578;DHT22;2811;51.900;10.734;2022-08-19T04:56:25;19.30;99.90
5578;DHT22;2811;51.900;10.734;2022-08-19T04:58:54;19.30;99.90
5578;DHT22;2811;51.900;10.734;2022-08-19T05:01:24;19.30;99.90
5578;DHT22;2811;51.900;10.734;2022-08-19T05:03:51;19.30;99.90
5578;DHT22;2811;51.900;10.734;2022-08-19T05:06:20;19.30;99.90
5578;DHT22;2811;51.900;10.734;2022-08-19T05:08:47;19.20;99.90
5578;DHT22;2811;51.900;10.734;2022-08-19T05:11:15;19.20;99.90
5578;DHT22;2811;51.900;10.734;2022-08-19T05:13:43;19.20;99.90
5578;DHT22;2811;51.900;10.734;2022-08-19T05:16:11;19.10;99.90
5578;DHT22;2811;51.900;10.734;2022-08-19T05:18:40;19.10;99.90
5578;DHT22;2811;51.900;10.734;2022-08-19T05:21:25;19.10;99.90
5578;DHT22;2811;51.900;10.734;2022-08-19T05:24:09;19.10;99.90
5578;DHT22;2811;51.900;10.734;2022-08-19T05:26:37;19.10;99.90
5578;DHT22;2811;51.900;10.734;2022-08-19T05:29:05;19.20;99.90
5578;DHT22;2811;51.900;10.734;2022-08-19T05:31:32;19.20;99.90
5578;DHT22;2811;51.900;10.734;2022-08-19T05:34:01;19.10;99.90
5578;DHT22;2811;51.900;10.734;2022-08-19T05:36:34;19.10;99.90
5578;DHT22;2811;51.900;10.734;2022-08-19T05:39:01;19.00;99.90
5578;DHT22;2811;51.900;10.734;2022-08-19T05:41:29;19.10;99.90
5578;DHT22;2811;51.900;10.734;2022-08-19T05:43:56;19.00;99.90
5578;DHT22;2811;51.900;10.734;2022-08-19T05:46:23;18.90;99.90
5578;DHT22;2811;51.900;10.734;2022-08-19T05:48:50;18.80;99.90
5578;DHT22;2811;51.900;10.734;2022-08-19T05:51:18;18.80;99.90
5578;DHT22;2811;51.900;10.734;2022-08-19T05:53:45;18.80;99.90
5578;DHT22;2811;51.900;10.734;2022-08-19T05:56:13;18.80;99.90
5578;DHT22;2811;51.900;10.734;2022-08-19T05:58:42;18.80;99.90
5578;DHT22;2811;51.900;10.734;2022-08-19T06:01:11;18.80;99.90
5578;DHT22;2811;51.900;10.734;2022-08-19T06:03:38;18.90;99.90
5578;DHT22;2811;51.900;10.734;2022-08-19T06:06:07;19.00;99.90
5578;DHT22;2811;51.900;10.734;2022-08-19T06:08:36;19.00;99.90
5578;DHT22;2811;51.900;10.734;2022-08-19T06:11:15;19.00;99.90
5578;DHT22;2811;51.900;10.734;2022-08-19T06:13:43;19.00;99.90
5578;DHT22;2811;51.900;10.734;2022-08-19T06:16:10;19.00;99.90
5578;DHT22;2811;51.900;10.734;2022-08-19T06:18:37;19.00;99.90
5578;DHT22;2811;51.900;10.734;2022-08-19T06:21:03;18.90;99.90
5578;DHT22;2811;51.900;10.734;2022-08-19T06:23:30;18.90;99.90
5578;DHT22;2811;51.900;10.734;2022-08-19T06:25:58;19.00;99.90
5578;DHT22;2811;51.900;10.734;2022-08-19T06:28:25;19.00;99.90
5578;DHT22;2811;51.900;10.734;2022-08-19T06:30:52;19.00;99.90
5578;DHT22;2811;51.900;10.734;2022-08-19T06:33:18;19.10;99.90
5578;DHT22;2811;51.900;10.734;2022-08-19T06:35:45;19.00;99.90
5578;DHT22;2811;51.900;10.734;2022-08-19T06:38:12;19.00;99.90
5578;DHT22;2811;51.900;10.734;2022-08-19T06:40:38;19.00;99.90
5578;DHT22;2811;51.900;10.734;2022-08-19T06:43:06;18.90;99.90
5578;DHT22;2811;51.900;10.734;2022-08-19T06:45:33;18.90;99.90
5578;DHT22;2811;51.900;10.734;2022-08-19T06:48:00;18.90;99.90
5578;DHT22;2811;51.900;10.734;2022-08-19T06:50:26;18.90;99.90
5578;DHT22;2811;51.900;10.734;2022-08-19T06:52:53;18.90;99.90
5578;DHT22;2811;51.900;10.734;2022-08-19T06:55:19;18.90;99.90
5578;DHT22;2811;51.900;10.734;2022-08-19T06:57:46;18.90;99.90
5578;DHT22;2811;51.900;10.734;2022-08-19T07:00:15;18.80;99.90
5578;DHT22;2811;51.900;10.734;2022-08-19T07:02:42;18.80;99.90
5578;DHT22;2811;51.900;10.734;2022-08-19T07:05:09;18.90;99.90
5578;DHT22;2811;51.900;10.734;2022-08-19T07:07:36;18.90;99.90
5578;DHT22;2811;51.900;10.734;2022-08-19T07:10:04;18.90;99.90
5578;DHT22;2811;51.900;10.734;2022-08-19T07:12:32;18.90;99.90
5578;DHT22;2811;51.900;10.734;2022-08-19T07:14:59;18.90;99.90
5578;DHT22;2811;51.900;10.734;2022-08-19T07:17:27;19.00;99.90
5578;DHT22;2811;51.900;10.734;2022-08-19T07:19:54;19.00;99.90
5578;DHT22;2811;51.900;10.734;2022-08-19T07:22:21;18.90;99.90
5578;DHT22;2811;51.900;10.734;2022-08-19T07:24:49;18.80;99.90
5578;DHT22;2811;51.900;10.734;2022-08-19T07:27:15;18.80;99.90
5578;DHT22;2811;51.900;10.734;2022-08-19T07:29:42;18.90;99.90
5578;DHT22;2811;51.900;10.734;2022-08-19T07:32:09;18.90;99.90
5578;DHT22;2811;51.900;10.734;2022-08-19T07:34:38;18.90;99.90
5578;DHT22;2811;51.900;10.734;2022-08-19T07:37:05;18.90;99.90
5578;DHT22;2811;51.900;10.734;2022-08-19T07:39:34;18.90;99.90
5578;DHT22;2811;51.900;10.734;2022-08-19T07:42:05;18.90;99.90
5578;DHT22;2811;51.900;10.734;2022-08-19T07:44:33;18.90;99.90
5578;DHT22;2811;51.900;10.734;2022-08-19T07:47:00;18.90;99.90
5578;DHT22;2811;51.900;10.734;2022-08-19T07:49:27;18.90;99.90
5578;DHT22;2811;51.900;10.734;2022-08-19T07:51:58;19.00;99.90
5578;DHT22;2811;51.900;10.734;2022-08-19T07:54:28;19.00;99.90
5578;DHT22;2811;51.900;10.734;2022-08-19T07:56:55;19.00;99.90
5578;DHT22;2811;51.900;10.734;2022-08-19T07:59:23;19.00;99.90
5578;DHT22;2811;51.900;10.734;2022-08-19T08:01:50;19.00;99.90
5578;DHT22;2811;51.900;10.734;2022-08-19T08:04:18;19.00;99.90
5578;DHT22;2811;51.900;10.734;2022-08-19T08:07:06;18.90;99.90
5578;DHT22;2811;51.900;10.734;2022-08-19T08:09:51;18.90;99.90
5578;DHT22;2811;51.900;10.734;2022-08-19T08:12:21;18.90;99.90
5578;DHT22;2811;51.900;10.734;2022-08-19T08:14:51;18.90;99.90
5578;DHT22;2811;51.900;10.734;2022-08-19T08:17:20;18.90;99.90
5578;DHT22;2811;51.900;10.734;2022-08-19T08:19:48;19.00;99.90
5578;DHT22;2811;51.900;10.734;2022-08-19T08:22:19;19.00;99.90
5578;DHT22;2811;51.900;10.734;2022-08-19T08:25:02;19.00;99.90
5578;DHT22;2811;51.900;10.734;2022-08-19T08:27:29;19.00;99.90
5578;DHT22;2811;51.900;10.734;2022-08-19T08:29:56;19.00;99.90
5578;DHT22;2811;51.900;10.734;2022-08-19T08:32:23;19.00;99.90
5578;DHT22;2811;51.900;10.734;2022-08-19T08:34:50;19.10;99.90
5578;DHT22;2811;51.900;10.734;2022-08-19T08:37:18;19.10;99.90
5578;DHT22;2811;51.900;10.734;2022-08-19T08:39:44;19.10;99.90
5578;DHT22;2811;51.900;10.734;2022-08-19T08:42:15;19.20;99.90
5578;DHT22;2811;51.900;10.734;2022-08-19T08:44:52;19.20;99.90
5578;DHT22;2811;51.900;10.734;2022-08-19T08:47:22;19.20;99.90
5578;DHT22;2811;51.900;10.734;2022-08-19T08:49:52;19.20;99.90
5578;DHT22;2811;51.900;10.734;2022-08-19T08:52:24;19.20;99.90
5578;DHT22;2811;51.900;10.734;2022-08-19T08:54:54;19.10;99.90
5578;DHT22;2811;51.900;10.734;2022-08-19T08:57:26;19.20;99.90
5578;DHT22;2811;51.900;10.734;2022-08-19T08:59:54;19.30;99.90
5578;DHT22;2811;51.900;10.734;2022-08-19T09:02:25;19.30;99.90
5578;DHT22;2811;51.900;10.734;2022-08-19T09:04:53;19.40;99.90
5578;DHT22;2811;51.900;10.734;2022-08-19T09:07:28;19.40;99.90
5578;DHT22;2811;51.900;10.734;2022-08-19T09:10:08;19.50;99.90
5578;DHT22;2811;51.900;10.734;2022-08-19T09:12:43;19.50;99.90
5578;DHT22;2811;51.900;10.734;2022-08-19T09:15:14;19.60;99.90
5578;DHT22;2811;51.900;10.734;2022-08-19T09:17:42;19.70;99.90
5578;DHT22;2811;51.900;10.734;2022-08-19T09:20:16;19.70;99.90
5578;DHT22;2811;51.900;10.734;2022-08-19T09:22:45;19.80;99.90
5578;DHT22;2811;51.900;10.734;2022-08-19T09:25:16;19.80;99.90
5578;DHT22;2811;51.900;10.734;2022-08-19T09:27:44;19.80;99.90
5578;DHT22;2811;51.900;10.734;2022-08-19T09:30:15;19.80;99.90
5578;DHT22;2811;51.900;10.734;2022-08-19T09:32:43;19.90;99.90
5578;DHT22;2811;51.900;10.734;2022-08-19T09:35:11;20.00;99.90
5578;DHT22;2811;51.900;10.734;2022-08-19T09:37:39;20.10;99.90
5578;DHT22;2811;51.900;10.734;2022-08-19T09:40:08;20.20;99.90
5578;DHT22;2811;51.900;10.734;2022-08-19T09:42:35;20.20;99.90
5578;DHT22;2811;51.900;10.734;2022-08-19T09:45:02;20.30;99.90
5578;DHT22;2811;51.900;10.734;2022-08-19T09:47:29;20.50;99.90
5578;DHT22;2811;51.900;10.734;2022-08-19T09:49:57;20.50;99.90
5578;DHT22;2811;51.900;10.734;2022-08-19T09:52:24;20.60;99.90
5578;DHT22;2811;51.900;10.734;2022-08-19T09:54:52;20.70;99.90
5578;DHT22;2811;51.900;10.734;2022-08-19T09:57:20;20.60;99.90
5578;DHT22;2811;51.900;10.734;2022-08-19T09:59:47;20.50;99.90
5578;DHT22;2811;51.900;10.734;2022-08-19T10:02:13;20.70;99.90
5578;DHT22;2811;51.900;10.734;2022-08-19T10:04:40;20.70;99.90
5578;DHT22;2811;51.900;10.734;2022-08-19T10:07:24;20.70;99.90
5578;DHT22;2811;51.900;10.734;2022-08-19T10:09:51;20.70;99.90
5578;DHT22;2811;51.900;10.734;2022-08-19T10:12:19;20.70;99.90
5578;DHT22;2811;51.900;10.734;2022-08-19T10:14:46;20.80;99.90
5578;DHT22;2811;51.900;10.734;2022-08-19T10:17:13;20.90;99.90
5578;DHT22;2811;51.900;10.734;2022-08-19T10:19:40;20.80;99.90
5578;DHT22;2811;51.900;10.734;2022-08-19T10:22:07;20.90;99.90
5578;DHT22;2811;51.900;10.734;2022-08-19T10:24:34;20.90;99.90
5578;DHT22;2811;51.900;10.734;2022-08-19T10:27:01;20.80;99.90
5578;DHT22;2811;51.900;10.734;2022-08-19T10:29:30;21.00;99.90
5578;DHT22;2811;51.900;10.734;2022-08-19T10:32:00;21.20;99.90
5578;DHT22;2811;51.900;10.734;2022-08-19T10:34:28;21.30;99.90
5578;DHT22;2811;51.900;10.734;2022-08-19T10:36:56;21.70;99.90
5578;DHT22;2811;51.900;10.734;2022-08-19T10:39:23;21.60;99.90
5578;DHT22;2811;51.900;10.734;2022-08-19T10:41:49;21.70;99.90
5578;DHT22;2811;51.900;10.734;2022-08-19T10:44:16;21.70;99.90
5578;DHT22;2811;51.900;10.734;2022-08-19T10:46:44;21.80;99.90
5578;DHT22;2811;51.900;10.734;2022-08-19T10:49:12;21.90;99.90
5578;DHT22;2811;51.900;10.734;2022-08-19T10:51:39;22.10;99.90
5578;DHT22;2811;51.900;10.734;2022-08-19T10:54:24;22.20;99.90
5578;DHT22;2811;51.900;10.734;2022-08-19T10:57:11;22.20;99.90
5578;DHT22;2811;51.900;10.734;2022-08-19T10:59:37;22.30;99.90
5578;DHT22;2811;51.900;10.734;2022-08-19T11:02:08;22.40;99.90
5578;DHT22;2811;51.900;10.734;2022-08-19T11:04:36;22.60;99.90
5578;DHT22;2811;51.900;10.734;2022-08-19T11:07:03;22.60;99.90
5578;DHT22;2811;51.900;10.734;2022-08-19T11:09:31;22.50;99.90
5578;DHT22;2811;51.900;10.734;2022-08-19T11:11:58;22.50;99.90
5578;DHT22;2811;51.900;10.734;2022-08-19T11:14:24;22.60;99.90
5578;DHT22;2811;51.900;10.734;2022-08-19T11:16:52;23.10;99.90
5578;DHT22;2811;51.900;10.734;2022-08-19T11:19:22;23.60;99.90
5578;DHT22;2811;51.900;10.734;2022-08-19T11:21:50;23.80;99.90
5578;DHT22;2811;51.900;10.734;2022-08-19T11:24:19;24.20;99.90
5578;DHT22;2811;51.900;10.734;2022-08-19T11:26:48;24.40;99.90
5578;DHT22;2811;51.900;10.734;2022-08-19T11:29:16;24.50;99.90
5578;DHT22;2811;51.900;10.734;2022-08-19T11:31:44;24.10;99.90
5578;DHT22;2811;51.900;10.734;2022-08-19T11:34:13;24.10;99.90
5578;DHT22;2811;51.900;10.734;2022-08-19T11:36:44;24.10;99.90
5578;DHT22;2811;51.900;10.734;2022-08-19T11:39:13;24.50;99.90
5578;DHT22;2811;51.900;10.734;2022-08-19T11:41:40;25.00;99.90
5578;DHT22;2811;51.900;10.734;2022-08-19T11:44:07;24.80;99.90
5578;DHT22;2811;51.900;10.734;2022-08-19T11:46:35;24.80;99.90
5578;DHT22;2811;51.900;10.734;2022-08-19T11:49:04;24.80;99.90
5578;DHT22;2811;51.900;10.734;2022-08-19T11:51:33;24.80;99.90
5578;DHT22;2811;51.900;10.734;2022-08-19T11:54:01;24.70;99.90
5578;DHT22;2811;51.900;10.734;2022-08-19T11:56:28;24.80;99.90
5578;DHT22;2811;51.900;10.734;2022-08-19T11:58:55;24.90;99.90
5578;DHT22;2811;51.900;10.734;2022-08-19T12:01:24;25.20;99.90
5578;DHT22;2811;51.900;10.734;2022-08-19T12:03:52;25.20;99.90
5578;DHT22;2811;51.900;10.734;2022-08-19T12:06:22;25.10;99.90
5578;DHT22;2811;51.900;10.734;2022-08-19T12:08:51;25.10;99.90
5578;DHT22;2811;51.900;10.734;2022-08-19T12:11:19;25.00;99.90
5578;DHT22;2811;51.900;10.734;2022-08-19T12:13:46;24.70;99.90
5578;DHT22;2811;51.900;10.734;2022-08-19T12:16:15;24.80;99.90
5578;DHT22;2811;51.900;10.734;2022-08-19T12:18:43;24.80;99.90
5578;DHT22;2811;51.900;10.734;2022-08-19T12:21:11;24.70;99.90
5578;DHT22;2811;51.900;10.734;2022-08-19T12:23:39;24.80;99.90
5578;DHT22;2811;51.900;10.734;2022-08-19T12:26:06;24.70;99.90
5578;DHT22;2811;51.900;10.734;2022-08-19T12:28:36;25.10;99.90
5578;DHT22;2811;51.900;10.734;2022-08-19T12:31:03;24.90;99.90
5578;DHT22;2811;51.900;10.734;2022-08-19T12:33:30;25.10;99.90
5578;DHT22;2811;51.900;10.734;2022-08-19T12:36:01;25.30;99.90
5578;DHT22;2811;51.900;10.734;2022-08-19T12:38:29;25.30;99.90
5578;DHT22;2811;51.900;10.734;2022-08-19T12:40:55;25.50;99.90
5578;DHT22;2811;51.900;10.734;2022-08-19T12:43:22;25.50;99.90
5578;DHT22;2811;51.900;10.734;2022-08-19T12:45:50;25.50;99.90
5578;DHT22;2811;51.900;10.734;2022-08-19T12:48:17;25.70;99.90
5578;DHT22;2811;51.900;10.734;2022-08-19T12:50:45;26.00;99.90
5578;DHT22;2811;51.900;10.734;2022-08-19T12:53:12;26.10;99.10
5578;DHT22;2811;51.900;10.734;2022-08-19T12:55:39;26.70;98.80
5578;DHT22;2811;51.900;10.734;2022-08-19T12:58:06;26.00;99.40
5578;DHT22;2811;51.900;10.734;2022-08-19T13:00:33;26.30;99.40
5578;DHT22;2811;51.900;10.734;2022-08-19T13:03:01;26.60;98.30
5578;DHT22;2811;51.900;10.734;2022-08-19T13:05:30;26.60;97.80
5578;DHT22;2811;51.900;10.734;2022-08-19T13:07:58;27.00;98.00
5578;DHT22;2811;51.900;10.734;2022-08-19T13:10:29;27.10;97.00
5578;DHT22;2811;51.900;10.734;2022-08-19T13:12:57;26.90;96.20
5578;DHT22;2811;51.900;10.734;2022-08-19T13:15:25;26.60;96.60
5578;DHT22;2811;51.900;10.734;2022-08-19T13:17:54;26.50;97.20
5578;DHT22;2811;51.900;10.734;2022-08-19T13:20:23;26.70;96.60
5578;DHT22;2811;51.900;10.734;2022-08-19T13:22:50;26.60;96.50
5578;DHT22;2811;51.900;10.734;2022-08-19T13:25:18;26.40;97.30
5578;DHT22;2811;51.900;10.734;2022-08-19T13:27:46;26.50;97.00
5578;DHT22;2811;51.900;10.734;2022-08-19T13:30:16;26.60;96.10
5578;DHT22;2811;51.900;10.734;2022-08-19T13:33:00;26.50;96.30
5578;DHT22;2811;51.900;10.734;2022-08-19T13:35:43;26.30;96.20
5578;DHT22;2811;51.900;10.734;2022-08-19T13:38:11;25.90;97.10
5578;DHT22;2811;51.900;10.734;2022-08-19T13:40:39;26.00;97.40
5578;DHT22;2811;51.900;10.734;2022-08-19T13:43:06;25.90;97.90
5578;DHT22;2811;51.900;10.734;2022-08-19T13:45:34;25.80;98.50
5578;DHT22;2811;51.900;10.734;2022-08-19T13:48:03;25.80;98.40
5578;DHT22;2811;51.900;10.734;2022-08-19T13:50:33;25.90;98.60
5578;DHT22;2811;51.900;10.734;2022-08-19T13:53:01;26.10;97.50
5578;DHT22;2811;51.900;10.734;2022-08-19T13:55:29;26.10;97.60
5578;DHT22;2811;51.900;10.734;2022-08-19T13:57:58;26.00;97.80
5578;DHT22;2811;51.900;10.734;2022-08-19T14:00:26;25.90;98.10
5578;DHT22;2811;51.900;10.734;2022-08-19T14:02:55;26.00;98.20
5578;DHT22;2811;51.900;10.734;2022-08-19T14:05:24;26.10;98.40
5578;DHT22;2811;51.900;10.734;2022-08-19T14:07:51;26.10;97.90
5578;DHT22;2811;51.900;10.734;2022-08-19T14:10:20;26.10;97.60
5578;DHT22;2811;51.900;10.734;2022-08-19T14:12:47;26.10;97.90
5578;DHT22;2811;51.900;10.734;2022-08-19T14:15:15;26.20;97.60
5578;DHT22;2811;51.900;10.734;2022-08-19T14:17:43;26.20;97.80
5578;DHT22;2811;51.900;10.734;2022-08-19T14:20:12;26.20;97.50
5578;DHT22;2811;51.900;10.734;2022-08-19T14:22:42;26.20;97.50
5578;DHT22;2811;51.900;10.734;2022-08-19T14:25:12;26.30;97.90
5578;DHT22;2811;51.900;10.734;2022-08-19T14:27:41;26.20;97.50
5578;DHT22;2811;51.900;10.734;2022-08-19T14:30:10;26.40;97.30
5578;DHT22;2811;51.900;10.734;2022-08-19T14:32:37;26.30;97.10
5578;DHT22;2811;51.900;10.734;2022-08-19T14:35:05;26.10;97.40
5578;DHT22;2811;51.900;10.734;2022-08-19T14:37:33;26.10;97.30
5578;DHT22;2811;51.900;10.734;2022-08-19T14:40:00;26.10;97.20
5578;DHT22;2811;51.900;10.734;2022-08-19T14:42:26;26.10;97.60
5578;DHT22;2811;51.900;10.734;2022-08-19T14:44:57;26.30;96.90
5578;DHT22;2811;51.900;10.734;2022-08-19T14:47:24;26.40;96.40
5578;DHT22;2811;51.900;10.734;2022-08-19T14:49:52;26.40;96.40
5578;DHT22;2811;51.900;10.734;2022-08-19T14:52:19;26.30;96.20
5578;DHT22;2811;51.900;10.734;2022-08-19T14:54:45;26.20;96.40
5578;DHT22;2811;51.900;10.734;2022-08-19T14:57:13;26.10;96.20
5578;DHT22;2811;51.900;10.734;2022-08-19T14:59:40;26.10;96.20
5578;DHT22;2811;51.900;10.734;2022-08-19T15:02:08;26.10;96.50
5578;DHT22;2811;51.900;10.734;2022-08-19T15:04:35;26.00;96.60
5578;DHT22;2811;51.900;10.734;2022-08-19T15:07:02;26.00;96.70
5578;DHT22;2811;51.900;10.734;2022-08-19T15:09:29;26.10;96.30
5578;DHT22;2811;51.900;10.734;2022-08-19T15:11:56;26.10;96.40
5578;DHT22;2811;51.900;10.734;2022-08-19T15:14:24;26.30;96.60
5578;DHT22;2811;51.900;10.734;2022-08-19T15:16:51;26.40;95.60
5578;DHT22;2811;51.900;10.734;2022-08-19T15:19:19;26.80;95.60
5578;DHT22;2811;51.900;10.734;2022-08-19T15:21:46;26.50;95.40
5578;DHT22;2811;51.900;10.734;2022-08-19T15:24:12;26.30;95.50
5578;DHT22;2811;51.900;10.734;2022-08-19T15:26:39;26.10;95.40
5578;DHT22;2811;51.900;10.734;2022-08-19T15:29:06;26.00;95.50
5578;DHT22;2811;51.900;10.734;2022-08-19T15:31:33;26.00;95.50
5578;DHT22;2811;51.900;10.734;2022-08-19T15:34:01;26.00;95.40
5578;DHT22;2811;51.900;10.734;2022-08-19T15:36:30;26.00;95.40
5578;DHT22;2811;51.900;10.734;2022-08-19T15:38:57;25.90;95.50
5578;DHT22;2811;51.900;10.734;2022-08-19T15:41:27;26.10;95.20
5578;DHT22;2811;51.900;10.734;2022-08-19T15:43:57;26.20;95.20
5578;DHT22;2811;51.900;10.734;2022-08-19T15:46:27;26.10;95.50
5578;DHT22;2811;51.900;10.734;2022-08-19T15:48:55;26.10;95.70
5578;DHT22;2811;51.900;10.734;2022-08-19T15:51:22;26.10;95.50
5578;DHT22;2811;51.900;10.734;2022-08-19T15:53:51;26.10;95.40